This is the latest recevied weather packets stored in our database for station/object JA6CFI-13. If no packets are shown the sender has not sent any weather packets the latest 1 day(s).
| Time | Temp. | Humidity | Pressure | Rain* | Wind** | Luminosity | Snow |
|---|---|---|---|---|---|---|---|
| 1778106922 | 17.22° C | 86% | 1014.5 hPa | 0 mm | - | - | - |
| 1778103802 | 15.56° C | 92% | 1014.7 hPa | 0 mm | - | - | - |
| 1778103022 | 15.56° C | 93% | 1014.6 hPa | 0 mm | - | - | - |
| 1778092882 | 14.44° C | 91% | 1014.4 hPa | 0 mm | - | - | - |
| 1778092102 | 14.44° C | 91% | 1014.5 hPa | 0 mm | - | - | - |
| 1778090541 | 14.44° C | 90% | 1014.7 hPa | 0 mm | - | - | - |
| 1778088982 | 15° C | 89% | 1014.9 hPa | 0 mm | - | - | - |
| 1778087421 | 15.56° C | 87% | 1015 hPa | 0 mm | - | - | - |
| 1778086641 | 15.56° C | 87% | 1015.1 hPa | 0 mm | - | - | - |
| 1778085082 | 15.56° C | 87% | 1015.2 hPa | 0 mm | - | - | - |
| 1778083521 | 15.56° C | 86% | 1015.4 hPa | 0 mm | - | - | - |
| 1778081961 | 16.11° C | 85% | 1015.6 hPa | 0 mm | - | - | - |
| 1778079622 | 16.67° C | 83% | 1015.5 hPa | 0 mm | - | - | - |
| 1778078062 | 17.22° C | 80% | 1015.7 hPa | 0 mm | - | - | - |
| 1778071822 | 18.33° C | 75% | 1016.3 hPa | 0 mm | - | - | - |
| 1778070261 | 18.89° C | 76% | 1016 hPa | 0 mm | - | - | - |
| 1778069482 | 18.89° C | 75% | 1015.8 hPa | 0 mm | - | - | - |
| 1778068702 | 18.89° C | 74% | 1015.6 hPa | 0 mm | - | - | - |
| 1778067141 | 20° C | 71% | 1015.4 hPa | 0 mm | - | - | - |
| 1778065581 | 20.56° C | 68% | 1015.3 hPa | 0 mm | - | - | - |
| 1778064802 | 20.56° C | 68% | 1015.2 hPa | 0 mm | - | - | - |
| 1778062461 | 21.67° C | 67% | 1014.8 hPa | 0 mm | - | - | - |
| 1778060902 | 22.22° C | 65% | 1015 hPa | 0 mm | - | - | - |
| 1778060121 | 22.22° C | 63% | 1015 hPa | 0 mm | - | - | - |
| 1778058561 | 22.78° C | 63% | 1015 hPa | 0 mm | - | - | - |
* Rain latest hour (hover to see other rain measurements)
** Current wind speed in m/s (hover to see current wind gust speed)